Terminal Aerodrome Forecast
Issued by NWS

Home | Current Version | Previous Version | Text Only | Print | Product List | Glossary On
Versions: 1 2 3 4 5 6 7 8 9 10 11 12 13 14 15 16 17 18 19 20 21 22 23 24 25 26 27 28 29
000
FTUS44 KMAF 200500
TAFHOB
TAF
KHOB 200526Z 2006/2106 11006KT P6SM BKN004 OVC015
      TEMPO 2006/2010 4SM -SHRA BR
     FM201000 11008KT P6SM OVC010
      TEMPO 2010/2014 4SM TSRA BR OVC005CB
     FM202100 13010KT P6SM BKN040=

USA.gov is the U.S. government's official web portal to all federal, state and local government web resources and services.